createdAt,value
2017-01-14T00:01:00.299Z,0
2017-01-14T00:02:09.286Z,0
2017-01-14T00:03:18.264Z,0
2017-01-14T00:04:27.244Z,0
2017-01-14T00:05:36.224Z,0
2017-01-14T00:06:45.211Z,0
2017-01-14T00:07:54.194Z,0
2017-01-14T00:09:03.181Z,0
2017-01-14T00:10:12.165Z,0
2017-01-14T00:11:21.147Z,0
2017-01-14T00:12:30.139Z,0
2017-01-14T00:13:39.121Z,0
2017-01-14T00:14:48.107Z,0
2017-01-14T00:15:57.090Z,0
2017-01-14T00:17:06.093Z,0
2017-01-14T00:18:15.070Z,0
2017-01-14T00:19:25.585Z,0
2017-01-14T00:20:35.398Z,0
2017-01-14T00:21:46.849Z,0
2017-01-14T00:22:57.858Z,0
2017-01-14T00:24:08.349Z,0
2017-01-14T00:25:19.956Z,0
2017-01-14T00:26:32.867Z,0
2017-01-14T00:27:41.856Z,0
2017-01-14T00:28:51.433Z,0
2017-01-14T00:30:01.061Z,0
2017-01-14T00:31:10.933Z,0
2017-01-14T00:32:20.834Z,0
2017-01-14T00:33:31.706Z,0
2017-01-14T00:34:41.898Z,0
2017-01-14T00:35:50.876Z,0
2017-01-14T00:36:59.862Z,0
2017-01-14T00:38:08.840Z,0
2017-01-14T00:39:17.820Z,0
2017-01-14T00:40:29.644Z,0
2017-01-14T00:41:39.508Z,0
2017-01-14T00:42:50.788Z,0
2017-01-14T00:44:00.729Z,0
2017-01-14T00:45:09.710Z,0
2017-01-14T00:46:18.689Z,0
2017-01-14T00:47:27.674Z,0
2017-01-14T00:48:36.651Z,0
2017-01-14T00:49:45.633Z,0
2017-01-14T00:50:54.610Z,0
2017-01-14T00:52:03.590Z,0
2017-01-14T00:53:12.573Z,0
2017-01-14T00:54:21.557Z,0
2017-01-14T00:55:30.538Z,0
2017-01-14T00:56:39.523Z,0
2017-01-14T00:57:48.504Z,0
2017-01-14T00:58:57.482Z,0
2017-01-14T01:00:06.466Z,0
2017-01-14T01:01:15.442Z,0
2017-01-14T01:02:24.423Z,0
2017-01-14T01:03:33.404Z,0
2017-01-14T01:04:42.387Z,0
2017-01-14T01:05:51.370Z,0
2017-01-14T01:07:00.357Z,0
2017-01-14T01:08:09.338Z,0
2017-01-14T01:09:18.322Z,0
2017-01-14T01:10:27.304Z,0
2017-01-14T01:11:36.284Z,0
2017-01-14T01:12:45.264Z,0
2017-01-14T01:13:54.247Z,0
2017-01-14T01:15:03.223Z,0
2017-01-14T01:16:12.204Z,0
2017-01-14T01:17:21.187Z,0
2017-01-14T01:18:30.168Z,0
2017-01-14T01:19:39.147Z,0
2017-01-14T01:20:48.127Z,0
2017-01-14T01:21:57.118Z,0
2017-01-14T01:23:06.097Z,0
2017-01-14T01:24:15.079Z,0
2017-01-14T01:25:24.059Z,0
2017-01-14T01:26:33.036Z,0
2017-01-14T01:27:42.015Z,0
2017-01-14T01:28:50.997Z,0
2017-01-14T01:29:59.976Z,0
2017-01-14T01:31:08.958Z,0
2017-01-14T01:32:17.948Z,0
2017-01-14T01:33:26.930Z,0
2017-01-14T01:34:35.913Z,0
2017-01-14T01:35:44.895Z,0
2017-01-14T01:36:53.876Z,0
2017-01-14T01:38:02.855Z,0
2017-01-14T01:39:11.832Z,0
2017-01-14T01:40:20.810Z,0
2017-01-14T01:41:29.790Z,0
2017-01-14T01:42:38.771Z,0
2017-01-14T01:43:47.780Z,0
2017-01-14T01:44:56.767Z,0
2017-01-14T01:46:05.750Z,0
2017-01-14T01:47:14.732Z,0
2017-01-14T01:48:23.711Z,0
2017-01-14T01:49:32.720Z,0
2017-01-14T01:50:41.701Z,0
2017-01-14T01:51:50.709Z,0
2017-01-14T01:52:59.690Z,0
2017-01-14T01:54:08.665Z,0
2017-01-14T01:55:17.645Z,0
2017-01-14T01:56:26.632Z,0
2017-01-14T01:57:35.610Z,0
2017-01-14T01:58:44.596Z,0
2017-01-14T01:59:53.574Z,0
2017-01-14T02:01:02.552Z,0
2017-01-14T02:02:11.537Z,0
2017-01-14T02:03:20.518Z,0
2017-01-14T02:04:29.498Z,0
2017-01-14T02:05:38.477Z,0
2017-01-14T02:06:47.467Z,0
2017-01-14T02:07:56.447Z,0
2017-01-14T02:09:05.428Z,0
2017-01-14T02:10:14.407Z,0
2017-01-14T02:11:23.382Z,0
2017-01-14T02:12:32.363Z,0
2017-01-14T02:13:41.341Z,0
2017-01-14T02:14:50.322Z,0
2017-01-14T02:15:59.308Z,0
2017-01-14T02:17:08.292Z,0
2017-01-14T02:18:17.282Z,0
2017-01-14T02:19:26.289Z,0
2017-01-14T02:20:35.267Z,0
2017-01-14T02:21:44.243Z,0
2017-01-14T02:22:53.222Z,0
2017-01-14T02:24:02.203Z,0
2017-01-14T02:25:11.184Z,0
2017-01-14T02:26:20.167Z,0
2017-01-14T02:27:29.146Z,0
2017-01-14T02:28:38.129Z,0
2017-01-14T02:29:47.108Z,0
2017-01-14T02:30:56.086Z,0
2017-01-14T02:32:05.065Z,0
2017-01-14T02:33:14.045Z,0
2017-01-14T02:34:23.021Z,0
2017-01-14T02:35:31.999Z,0
2017-01-14T02:36:40.982Z,0
2017-01-14T02:37:49.959Z,0
2017-01-14T02:38:58.945Z,0
2017-01-14T02:40:07.934Z,0
2017-01-14T02:41:16.915Z,0
2017-01-14T02:42:25.893Z,0
2017-01-14T02:43:34.870Z,0
2017-01-14T02:44:43.870Z,0
2017-01-14T02:45:52.851Z,0
2017-01-14T02:47:01.831Z,0
2017-01-14T02:48:10.816Z,0
2017-01-14T02:49:19.800Z,0
2017-01-14T02:50:29.436Z,0
2017-01-14T02:51:38.702Z,0
2017-01-14T02:52:48.322Z,0
2017-01-14T02:53:57.579Z,0
2017-01-14T02:55:06.565Z,0
2017-01-14T02:56:15.549Z,0
2017-01-14T02:57:24.530Z,0
2017-01-14T02:58:33.508Z,0
2017-01-14T02:59:42.484Z,0
2017-01-14T03:00:51.465Z,0
2017-01-14T03:02:00.439Z,0
2017-01-14T03:03:09.420Z,0
2017-01-14T03:04:18.397Z,0
2017-01-14T03:05:27.407Z,0
2017-01-14T03:06:36.386Z,0
2017-01-14T03:07:45.366Z,0
2017-01-14T03:08:54.350Z,0
2017-01-14T03:10:03.342Z,0
2017-01-14T03:11:12.320Z,0
2017-01-14T03:12:21.323Z,0
2017-01-14T03:13:30.303Z,0
2017-01-14T03:14:39.282Z,0
2017-01-14T03:15:48.259Z,0
2017-01-14T03:16:57.234Z,0
2017-01-14T03:18:06.209Z,0
2017-01-14T03:19:15.187Z,0
2017-01-14T03:20:24.169Z,0
2017-01-14T03:21:33.153Z,0
2017-01-14T03:22:42.139Z,0
2017-01-14T03:23:51.114Z,0
2017-01-14T03:25:00.092Z,0
2017-01-14T03:26:09.071Z,0
2017-01-14T03:27:18.049Z,0
2017-01-14T03:28:27.029Z,0
2017-01-14T03:29:36.008Z,0
2017-01-14T03:30:45.018Z,0
2017-01-14T03:31:53.995Z,0
2017-01-14T03:33:03.003Z,0
2017-01-14T03:34:11.987Z,0
2017-01-14T03:35:20.965Z,0
2017-01-14T03:36:29.945Z,0
2017-01-14T03:37:38.922Z,0
2017-01-14T03:38:47.934Z,0
2017-01-14T03:39:56.911Z,0
2017-01-14T03:41:05.896Z,0
2017-01-14T03:42:14.874Z,0
2017-01-14T03:43:23.854Z,0
2017-01-14T03:44:32.834Z,0
2017-01-14T03:45:41.820Z,0
2017-01-14T03:46:50.800Z,0
2017-01-14T03:47:59.779Z,0
2017-01-14T03:49:08.814Z,0
2017-01-14T03:50:17.791Z,0
2017-01-14T03:51:26.774Z,0
2017-01-14T03:52:35.753Z,0
2017-01-14T03:53:44.736Z,0
2017-01-14T03:54:53.715Z,0
2017-01-14T03:56:02.689Z,0
2017-01-14T03:57:11.670Z,0
2017-01-14T03:58:20.645Z,0
2017-01-14T03:59:29.627Z,0
2017-01-14T04:00:38.609Z,0
2017-01-14T04:01:47.583Z,0
2017-01-14T04:02:56.566Z,0
2017-01-14T04:04:05.551Z,0
2017-01-14T04:05:14.541Z,0
2017-01-14T04:06:23.526Z,0
2017-01-14T04:07:32.513Z,0
2017-01-14T04:08:41.492Z,0
2017-01-14T04:09:50.476Z,0
2017-01-14T04:10:59.482Z,0
2017-01-14T04:12:08.463Z,0
2017-01-14T04:13:17.449Z,0
2017-01-14T04:14:26.429Z,0
2017-01-14T04:15:35.416Z,0
2017-01-14T04:16:44.389Z,0
2017-01-14T04:17:53.369Z,0
2017-01-14T04:19:02.378Z,0
2017-01-14T04:20:11.365Z,0
2017-01-14T04:21:20.342Z,0
2017-01-14T04:22:29.331Z,0
2017-01-14T04:23:38.311Z,0
2017-01-14T04:24:47.288Z,0
2017-01-14T04:25:56.266Z,0
2017-01-14T04:27:05.247Z,0
2017-01-14T04:28:14.226Z,0
2017-01-14T04:29:23.206Z,0
2017-01-14T04:30:32.184Z,0
2017-01-14T04:31:41.163Z,0
2017-01-14T04:32:50.149Z,0
2017-01-14T04:33:59.132Z,0
2017-01-14T04:35:08.113Z,0
2017-01-14T04:36:17.098Z,0
2017-01-14T04:37:26.075Z,0
2017-01-14T04:38:35.051Z,0
2017-01-14T04:39:44.031Z,0
2017-01-14T04:40:53.009Z,0
2017-01-14T04:42:01.986Z,0
2017-01-14T04:43:10.965Z,0
2017-01-14T04:44:19.948Z,0
2017-01-14T04:45:28.929Z,0
2017-01-14T04:46:37.914Z,0
2017-01-14T04:47:46.895Z,0
2017-01-14T04:48:55.884Z,0
2017-01-14T04:50:04.864Z,0
2017-01-14T04:51:13.844Z,0
2017-01-14T04:52:22.826Z,0
2017-01-14T04:53:31.810Z,0
2017-01-14T04:54:40.791Z,0
2017-01-14T04:55:49.774Z,0
2017-01-14T04:56:58.757Z,0
2017-01-14T04:58:07.738Z,0
2017-01-14T04:59:16.719Z,0
2017-01-14T05:00:25.698Z,0
2017-01-14T05:01:34.674Z,0
2017-01-14T05:02:43.647Z,0
2017-01-14T05:03:52.630Z,0
2017-01-14T05:05:01.609Z,0
2017-01-14T05:06:10.592Z,0
2017-01-14T05:07:19.568Z,0
2017-01-14T05:08:28.545Z,0
2017-01-14T05:09:37.524Z,0
2017-01-14T05:10:46.505Z,0
2017-01-14T05:11:55.486Z,0
2017-01-14T05:13:04.464Z,0
2017-01-14T05:14:13.447Z,0
2017-01-14T05:15:22.430Z,0
2017-01-14T05:16:31.408Z,0
2017-01-14T05:17:40.384Z,0
2017-01-14T05:18:49.369Z,0
2017-01-14T05:19:58.351Z,0
2017-01-14T05:21:07.325Z,0
2017-01-14T05:22:16.306Z,0
2017-01-14T05:23:25.285Z,0
2017-01-14T05:24:34.266Z,0
2017-01-14T05:25:43.246Z,0
2017-01-14T05:26:52.223Z,0
2017-01-14T05:28:01.207Z,0
2017-01-14T05:29:10.187Z,0
2017-01-14T05:30:19.166Z,0
2017-01-14T05:31:28.153Z,0
2017-01-14T05:32:37.163Z,0
2017-01-14T05:33:46.146Z,0
2017-01-14T05:34:55.127Z,0
2017-01-14T05:36:04.106Z,0
2017-01-14T05:37:13.085Z,0
2017-01-14T05:38:22.068Z,0
2017-01-14T05:39:31.048Z,0
2017-01-14T05:40:40.031Z,0
2017-01-14T05:41:49.008Z,0
2017-01-14T05:42:57.987Z,0
2017-01-14T05:44:06.973Z,0
2017-01-14T05:45:15.956Z,0
2017-01-14T05:46:24.936Z,0
2017-01-14T05:47:33.943Z,0
2017-01-14T05:48:42.959Z,0
2017-01-14T05:49:51.933Z,0
2017-01-14T05:51:00.913Z,0
2017-01-14T05:52:09.888Z,0
2017-01-14T05:53:18.879Z,0
2017-01-14T05:54:27.872Z,0
2017-01-14T05:55:36.850Z,0
2017-01-14T05:56:45.830Z,0
2017-01-14T05:57:54.809Z,0
2017-01-14T05:59:03.795Z,0
2017-01-14T06:00:12.775Z,0
2017-01-14T06:01:21.764Z,0
2017-01-14T06:02:30.744Z,0
2017-01-14T06:03:39.729Z,0
2017-01-14T06:04:48.705Z,0
2017-01-14T06:05:57.682Z,0
2017-01-14T06:07:06.668Z,0
2017-01-14T06:08:15.646Z,0
2017-01-14T06:09:24.635Z,0
2017-01-14T06:10:33.614Z,0
2017-01-14T06:11:42.597Z,0
2017-01-14T06:12:51.578Z,0
2017-01-14T06:14:00.557Z,0
2017-01-14T06:15:09.550Z,0
2017-01-14T06:16:18.539Z,0
2017-01-14T06:17:27.520Z,0
2017-01-14T06:18:36.500Z,0
2017-01-14T06:19:45.487Z,0
2017-01-14T06:20:54.473Z,0
2017-01-14T06:22:03.456Z,0
2017-01-14T06:23:12.434Z,0
2017-01-14T06:24:21.419Z,0
2017-01-14T06:25:30.398Z,0
2017-01-14T06:26:39.383Z,0
2017-01-14T06:27:48.370Z,0
2017-01-14T06:28:57.349Z,0
2017-01-14T06:30:06.329Z,0
2017-01-14T06:31:15.318Z,0
2017-01-14T06:32:24.295Z,0
2017-01-14T06:33:33.277Z,0
2017-01-14T06:34:42.259Z,0
2017-01-14T06:35:51.262Z,0
2017-01-14T06:37:00.248Z,0
2017-01-14T06:38:09.228Z,0
2017-01-14T06:39:18.204Z,0
2017-01-14T06:40:27.187Z,0
2017-01-14T06:41:36.166Z,4
2017-01-14T06:42:45.146Z,4
2017-01-14T06:43:54.127Z,4
2017-01-14T06:45:03.109Z,0
2017-01-14T06:46:12.090Z,4
2017-01-14T06:47:21.086Z,4
2017-01-14T06:48:30.065Z,4
2017-01-14T06:49:39.052Z,4
2017-01-14T06:50:48.035Z,0
2017-01-14T06:51:57.013Z,4
2017-01-14T06:53:06.000Z,8
2017-01-14T06:54:14.980Z,4
2017-01-14T06:55:23.972Z,8
2017-01-14T06:56:32.953Z,8
2017-01-14T06:57:41.931Z,8
2017-01-14T06:58:50.912Z,8
2017-01-14T06:59:59.887Z,12
2017-01-14T07:01:08.870Z,12
2017-01-14T07:02:17.853Z,12
2017-01-14T07:03:26.834Z,12
2017-01-14T07:04:35.815Z,16
2017-01-14T07:05:44.794Z,12
2017-01-14T07:06:53.778Z,20
2017-01-14T07:08:02.777Z,20
2017-01-14T07:09:11.753Z,20
2017-01-14T07:10:20.729Z,20
2017-01-14T07:11:29.711Z,20
2017-01-14T07:12:38.695Z,28
2017-01-14T07:13:47.679Z,28
2017-01-14T07:14:56.666Z,32
2017-01-14T07:16:05.643Z,40
2017-01-14T07:17:14.623Z,44
2017-01-14T07:18:23.601Z,44
2017-01-14T07:19:32.585Z,48
2017-01-14T07:20:41.569Z,60
2017-01-14T07:21:50.585Z,72
2017-01-14T07:22:59.565Z,68
2017-01-14T07:24:08.548Z,76
2017-01-14T07:25:17.552Z,96
2017-01-14T07:26:26.529Z,112
2017-01-14T07:27:35.515Z,116
2017-01-14T07:28:44.497Z,120
2017-01-14T07:29:53.482Z,132
2017-01-14T07:31:02.516Z,144
2017-01-14T07:32:11.496Z,152
2017-01-14T07:33:20.475Z,156
2017-01-14T07:34:29.475Z,156
2017-01-14T07:35:38.454Z,168
2017-01-14T07:36:47.463Z,184
2017-01-14T07:37:56.443Z,188
2017-01-14T07:39:05.423Z,152
2017-01-14T07:40:14.408Z,124
2017-01-14T07:41:23.393Z,128
2017-01-14T07:42:32.375Z,116
2017-01-14T07:43:41.356Z,108
2017-01-14T07:44:50.337Z,116
2017-01-14T07:45:59.327Z,120
2017-01-14T07:47:08.724Z,120
2017-01-14T07:48:17.709Z,132
2017-01-14T07:49:26.705Z,128
2017-01-14T07:50:35.683Z,136
2017-01-14T07:51:44.674Z,144
2017-01-14T07:52:53.651Z,152
2017-01-14T07:54:02.632Z,152
2017-01-14T07:55:11.618Z,160
2017-01-14T07:56:20.626Z,144
2017-01-14T07:57:29.634Z,156
2017-01-14T07:58:38.614Z,168
2017-01-14T07:59:47.598Z,192
2017-01-14T08:00:56.575Z,232
2017-01-14T08:02:06.018Z,216
2017-01-14T08:03:14.999Z,204
2017-01-14T08:04:23.984Z,224
2017-01-14T08:05:32.967Z,204
2017-01-14T08:06:41.952Z,240
2017-01-14T08:07:50.931Z,212
2017-01-14T08:08:59.908Z,224
2017-01-14T08:10:08.893Z,204
2017-01-14T08:11:17.871Z,200
2017-01-14T08:12:26.853Z,196
2017-01-14T08:13:35.836Z,208
2017-01-14T08:14:44.814Z,216
2017-01-14T08:15:53.795Z,204
2017-01-14T08:17:02.780Z,196
2017-01-14T08:18:11.795Z,220
2017-01-14T08:19:20.771Z,236
2017-01-14T08:20:29.753Z,240
2017-01-14T08:21:38.736Z,244
2017-01-14T08:22:47.721Z,240
2017-01-14T08:23:56.702Z,220
2017-01-14T08:25:05.695Z,224
2017-01-14T08:26:14.680Z,248
2017-01-14T08:27:23.816Z,300
2017-01-14T08:28:32.801Z,324
2017-01-14T08:29:41.815Z,344
2017-01-14T08:30:50.795Z,396
2017-01-14T08:32:00.445Z,412
2017-01-14T08:33:09.423Z,468
2017-01-14T08:34:18.411Z,572
2017-01-14T08:35:27.391Z,532
2017-01-14T08:36:36.729Z,484
2017-01-14T08:37:46.383Z,488
2017-01-14T08:38:55.958Z,516
2017-01-14T08:40:05.130Z,492
2017-01-14T08:41:14.291Z,520
2017-01-14T08:42:23.470Z,576
2017-01-14T08:43:32.633Z,596
2017-01-14T08:44:41.643Z,688
2017-01-14T08:45:50.622Z,676
2017-01-14T08:46:59.607Z,564
2017-01-14T08:48:08.807Z,616
2017-01-14T08:49:18.156Z,632
2017-01-14T08:50:27.136Z,624
2017-01-14T08:51:36.506Z,644
2017-01-14T08:52:45.490Z,708
2017-01-14T08:53:54.473Z,760
2017-01-14T08:55:03.458Z,772
2017-01-14T08:56:12.996Z,756
2017-01-14T08:57:22.501Z,720
2017-01-14T08:58:31.932Z,652
2017-01-14T08:59:40.943Z,720
2017-01-14T09:00:50.324Z,704
2017-01-14T09:01:59.303Z,592
2017-01-14T09:03:08.561Z,576
2017-01-14T09:04:17.549Z,544
2017-01-14T09:05:26.541Z,540
2017-01-14T09:06:35.518Z,552
2017-01-14T09:07:44.498Z,504
2017-01-14T09:08:53.479Z,436
2017-01-14T09:10:02.458Z,324
2017-01-14T09:11:11.445Z,340
2017-01-14T09:12:20.837Z,440
2017-01-14T09:13:29.814Z,592
2017-01-14T09:14:38.792Z,640
2017-01-14T09:15:48.144Z,556
2017-01-14T09:16:57.266Z,468
2017-01-14T09:18:06.254Z,444
2017-01-14T09:19:15.447Z,484
2017-01-14T09:20:24.605Z,512
2017-01-14T09:21:33.584Z,512
2017-01-14T09:22:42.568Z,560
2017-01-14T09:23:51.547Z,672
2017-01-14T09:25:00.533Z,916
2017-01-14T09:26:09.512Z,1180
2017-01-14T09:27:18.490Z,1224
2017-01-14T09:28:27.473Z,1204
2017-01-14T09:29:36.458Z,1248
2017-01-14T09:30:45.434Z,1204
2017-01-14T09:31:54.415Z,1204
2017-01-14T09:33:03.396Z,1188
2017-01-14T09:34:12.381Z,1056
2017-01-14T09:35:21.367Z,1128
2017-01-14T09:36:30.352Z,1296
2017-01-14T09:37:39.332Z,1188
2017-01-14T09:38:48.312Z,1164
2017-01-14T09:39:57.297Z,1172
2017-01-14T09:41:06.279Z,1028
2017-01-14T09:42:15.271Z,932
2017-01-14T09:43:24.251Z,892
2017-01-14T09:44:33.238Z,760
2017-01-14T09:45:42.217Z,804
2017-01-14T09:46:51.198Z,724
2017-01-14T09:48:00.179Z,736
2017-01-14T09:49:09.161Z,944
2017-01-14T09:50:18.145Z,1064
2017-01-14T09:51:27.129Z,1028
2017-01-14T09:52:36.138Z,852
2017-01-14T09:53:45.123Z,820
2017-01-14T09:54:54.104Z,652
2017-01-14T09:56:03.091Z,576
2017-01-14T09:57:12.070Z,592
2017-01-14T09:58:21.053Z,740
2017-01-14T09:59:30.031Z,1004
2017-01-14T10:00:39.015Z,956
2017-01-14T10:01:47.999Z,824
2017-01-14T10:02:56.981Z,724
2017-01-14T10:04:05.963Z,720
2017-01-14T10:05:14.941Z,776
2017-01-14T10:06:23.928Z,880
2017-01-14T10:07:32.913Z,944
2017-01-14T10:08:41.894Z,1152
2017-01-14T10:09:50.870Z,1512
2017-01-14T10:10:59.855Z,1328
2017-01-14T10:12:08.840Z,1076
2017-01-14T10:13:17.828Z,1084
2017-01-14T10:14:26.806Z,1068
2017-01-14T10:15:35.786Z,940
2017-01-14T10:16:44.771Z,828
2017-01-14T10:17:53.779Z,764
2017-01-14T10:19:02.766Z,760
2017-01-14T10:20:11.744Z,1000
2017-01-14T10:21:20.725Z,972
2017-01-14T10:22:29.706Z,1156
2017-01-14T10:23:38.690Z,1404
2017-01-14T10:24:47.675Z,1644
2017-01-14T10:25:56.669Z,1620
2017-01-14T10:27:05.646Z,1408
2017-01-14T10:28:14.627Z,1236
2017-01-14T10:29:23.607Z,1268
2017-01-14T10:30:32.590Z,1264
2017-01-14T10:31:41.575Z,1140
2017-01-14T10:32:50.556Z,1092
2017-01-14T10:33:59.533Z,1384
2017-01-14T10:35:08.519Z,1560
2017-01-14T10:36:17.527Z,1684
2017-01-14T10:37:26.507Z,1892
2017-01-14T10:38:35.494Z,1632
2017-01-14T10:39:44.478Z,1520
2017-01-14T10:40:53.460Z,1184
2017-01-14T10:42:02.447Z,1380
2017-01-14T10:43:11.429Z,1136
2017-01-14T10:44:20.406Z,980
2017-01-14T10:45:29.384Z,776
2017-01-14T10:46:38.367Z,1004
2017-01-14T10:47:47.350Z,1260
2017-01-14T10:48:56.366Z,1600
2017-01-14T10:50:05.350Z,1120
2017-01-14T10:51:14.333Z,956
2017-01-14T10:52:23.313Z,872
2017-01-14T10:53:32.298Z,776
2017-01-14T10:54:41.286Z,852
2017-01-14T10:55:50.300Z,1124
2017-01-14T10:56:59.281Z,1256
2017-01-14T10:58:08.264Z,1220
2017-01-14T10:59:17.729Z,1212
2017-01-14T11:00:28.496Z,1180
2017-01-14T11:01:37.476Z,1264
2017-01-14T11:02:46.451Z,1268
2017-01-14T11:03:55.438Z,1164
2017-01-14T11:05:05.345Z,1320
2017-01-14T11:06:14.822Z,1320
2017-01-14T11:07:23.819Z,1448
2017-01-14T11:08:35.089Z,1440
2017-01-14T11:09:44.850Z,1540
2017-01-14T11:10:53.900Z,1516
2017-01-14T11:12:04.391Z,1332
2017-01-14T11:13:13.904Z,1232
2017-01-14T11:14:23.422Z,1152
2017-01-14T11:15:32.647Z,1324
2017-01-14T11:16:41.630Z,1580
2017-01-14T11:17:52.535Z,1560
2017-01-14T11:19:02.230Z,1444
2017-01-14T11:20:11.228Z,1360
2017-01-14T11:21:21.738Z,1432
2017-01-14T11:22:31.370Z,1652
2017-01-14T11:23:42.268Z,1856
2017-01-14T11:24:51.959Z,2116
2017-01-14T11:26:00.941Z,1916
2017-01-14T11:27:10.241Z,1528
2017-01-14T11:28:20.004Z,1292
2017-01-14T11:29:28.983Z,1296
2017-01-14T11:30:37.962Z,1336
2017-01-14T11:31:48.991Z,1384
2017-01-14T11:32:58.673Z,1352
2017-01-14T11:34:09.961Z,1472
2017-01-14T11:35:19.561Z,1388
2017-01-14T11:36:28.544Z,1540
2017-01-14T11:37:38.209Z,1288
2017-01-14T11:38:48.238Z,1200
2017-01-14T11:39:57.651Z,1092
2017-01-14T11:41:07.280Z,1044
2017-01-14T11:42:16.259Z,980
2017-01-14T11:43:27.148Z,980
2017-01-14T11:44:36.835Z,948
2017-01-14T11:45:45.815Z,712
2017-01-14T11:46:55.890Z,560
2017-01-14T11:48:04.894Z,580
2017-01-14T11:49:15.481Z,656
2017-01-14T11:50:25.189Z,912
2017-01-14T11:51:34.184Z,1188
2017-01-14T11:52:44.658Z,1552
2017-01-14T11:53:54.821Z,1444
2017-01-14T11:55:05.223Z,1124
2017-01-14T11:56:14.671Z,1160
2017-01-14T11:57:23.648Z,1232
2017-01-14T11:58:33.701Z,1176
2017-01-14T11:59:43.162Z,1172
2017-01-14T12:00:52.147Z,1412
2017-01-14T12:02:02.657Z,1456
2017-01-14T12:03:12.339Z,1036
2017-01-14T12:04:21.320Z,1108
2017-01-14T12:05:30.546Z,1288
2017-01-14T12:06:40.544Z,1076
2017-01-14T12:07:49.527Z,1128
2017-01-14T12:08:59.763Z,924
2017-01-14T12:10:09.501Z,688
2017-01-14T12:11:18.875Z,624
2017-01-14T12:12:28.596Z,576
2017-01-14T12:13:38.489Z,504
2017-01-14T12:14:47.505Z,484
2017-01-14T12:15:56.493Z,476
2017-01-14T12:17:06.180Z,576
2017-01-14T12:18:15.598Z,540
2017-01-14T12:19:24.579Z,644
2017-01-14T12:20:34.145Z,640
2017-01-14T12:21:43.137Z,612
2017-01-14T12:22:53.279Z,672
2017-01-14T12:24:02.491Z,600
2017-01-14T12:25:11.479Z,600
2017-01-14T12:26:21.603Z,632
2017-01-14T12:27:30.697Z,772
2017-01-14T12:28:40.623Z,756
2017-01-14T12:29:50.244Z,776
2017-01-14T12:30:59.230Z,808
2017-01-14T12:32:08.690Z,736
2017-01-14T12:33:18.416Z,812
2017-01-14T12:34:27.402Z,752
2017-01-14T12:35:37.757Z,732
2017-01-14T12:36:47.356Z,712
2017-01-14T12:37:57.500Z,764
2017-01-14T12:39:06.928Z,752
2017-01-14T12:40:15.911Z,784
2017-01-14T12:41:25.641Z,728
2017-01-14T12:42:35.095Z,744
2017-01-14T12:43:44.074Z,920
2017-01-14T12:44:53.780Z,1100
2017-01-14T12:46:02.758Z,1064
2017-01-14T12:47:12.452Z,1316
2017-01-14T12:48:22.157Z,1336
2017-01-14T12:49:31.133Z,1344
2017-01-14T12:50:40.842Z,1360
2017-01-14T12:51:49.986Z,1204
2017-01-14T12:52:59.816Z,1128
2017-01-14T12:54:09.462Z,1012
2017-01-14T12:55:18.445Z,980
2017-01-14T12:56:28.394Z,1000
2017-01-14T12:57:37.753Z,1088
2017-01-14T12:58:46.941Z,1052
2017-01-14T12:59:56.339Z,916
2017-01-14T13:01:05.318Z,1144
2017-01-14T13:02:14.478Z,1492
2017-01-14T13:03:23.458Z,1836
2017-01-14T13:04:32.757Z,1900
2017-01-14T13:05:41.778Z,1620
2017-01-14T13:06:50.765Z,1208
2017-01-14T13:08:01.417Z,952
2017-01-14T13:09:11.170Z,848
2017-01-14T13:10:20.182Z,1000
2017-01-14T13:11:30.174Z,1372
2017-01-14T13:12:39.197Z,1768
2017-01-14T13:13:49.069Z,1900
2017-01-14T13:14:59.201Z,1600
2017-01-14T13:16:09.742Z,1144
2017-01-14T13:17:19.570Z,948
2017-01-14T13:18:29.829Z,880
2017-01-14T13:19:39.975Z,844
2017-01-14T13:20:48.967Z,824
2017-01-14T13:21:59.478Z,764
2017-01-14T13:23:11.486Z,780
2017-01-14T13:24:21.045Z,756
2017-01-14T13:25:30.032Z,776
2017-01-14T13:26:39.467Z,728
2017-01-14T13:27:48.927Z,700
2017-01-14T13:28:57.942Z,692
2017-01-14T13:30:06.927Z,672
2017-01-14T13:31:15.912Z,652
2017-01-14T13:32:24.903Z,700
2017-01-14T13:33:33.890Z,728
2017-01-14T13:34:42.873Z,776
2017-01-14T13:35:51.857Z,724
2017-01-14T13:37:00.837Z,712
2017-01-14T13:38:09.820Z,692
2017-01-14T13:39:18.801Z,680
2017-01-14T13:40:27.789Z,652
2017-01-14T13:41:36.779Z,720
2017-01-14T13:42:45.771Z,644
2017-01-14T13:43:54.752Z,628
2017-01-14T13:45:03.743Z,640
2017-01-14T13:46:12.732Z,656
2017-01-14T13:47:21.715Z,656
2017-01-14T13:48:30.700Z,616
2017-01-14T13:49:39.688Z,616
2017-01-14T13:50:48.673Z,608
2017-01-14T13:51:57.676Z,588
2017-01-14T13:53:06.661Z,592
2017-01-14T13:54:15.643Z,592
2017-01-14T13:55:24.628Z,572
2017-01-14T13:56:33.615Z,568
2017-01-14T13:57:42.601Z,544
2017-01-14T13:58:51.588Z,524
2017-01-14T14:00:00.578Z,540
2017-01-14T14:01:09.569Z,540
2017-01-14T14:02:18.550Z,540
2017-01-14T14:03:27.975Z,536
2017-01-14T14:04:36.970Z,536
2017-01-14T14:05:45.949Z,500
2017-01-14T14:06:54.943Z,516
2017-01-14T14:08:03.925Z,488
2017-01-14T14:09:12.907Z,480
2017-01-14T14:10:21.895Z,452
2017-01-14T14:11:30.875Z,452
2017-01-14T14:12:39.866Z,472
2017-01-14T14:13:48.884Z,472
2017-01-14T14:14:57.867Z,472
2017-01-14T14:16:06.858Z,476
2017-01-14T14:17:15.856Z,440
2017-01-14T14:18:24.850Z,436
2017-01-14T14:19:33.831Z,460
2017-01-14T14:20:42.817Z,408
2017-01-14T14:21:51.801Z,396
2017-01-14T14:23:00.788Z,392
2017-01-14T14:24:09.810Z,388
2017-01-14T14:25:18.804Z,396
2017-01-14T14:26:27.786Z,412
2017-01-14T14:27:36.771Z,392
2017-01-14T14:28:45.754Z,420
2017-01-14T14:29:54.745Z,372
2017-01-14T14:31:03.733Z,364
2017-01-14T14:32:12.728Z,360
2017-01-14T14:33:21.715Z,348
2017-01-14T14:34:30.703Z,344
2017-01-14T14:35:39.713Z,340
2017-01-14T14:36:48.699Z,332
2017-01-14T14:37:57.677Z,336
2017-01-14T14:39:06.661Z,328
2017-01-14T14:40:15.644Z,320
2017-01-14T14:41:24.631Z,308
2017-01-14T14:42:33.616Z,300
2017-01-14T14:43:42.596Z,296
2017-01-14T14:44:51.577Z,280
2017-01-14T14:46:00.557Z,280
2017-01-14T14:47:09.543Z,272
2017-01-14T14:48:18.538Z,272
2017-01-14T14:49:27.520Z,276
2017-01-14T14:50:36.504Z,280
2017-01-14T14:51:45.476Z,276
2017-01-14T14:52:54.461Z,236
2017-01-14T14:54:03.447Z,204
2017-01-14T14:55:12.424Z,216
2017-01-14T14:56:21.414Z,192
2017-01-14T14:57:30.394Z,188
2017-01-14T14:58:39.373Z,184
2017-01-14T14:59:48.355Z,168
2017-01-14T15:00:57.362Z,160
2017-01-14T15:02:06.349Z,144
2017-01-14T15:03:15.327Z,140
2017-01-14T15:04:24.306Z,140
2017-01-14T15:05:33.295Z,128
2017-01-14T15:06:42.278Z,124
2017-01-14T15:07:51.265Z,108
2017-01-14T15:09:00.244Z,100
2017-01-14T15:10:09.225Z,92
2017-01-14T15:11:18.207Z,88
2017-01-14T15:12:27.189Z,80
2017-01-14T15:13:36.174Z,76
2017-01-14T15:14:45.152Z,64
2017-01-14T15:15:54.137Z,64
2017-01-14T15:17:03.121Z,60
2017-01-14T15:18:12.106Z,60
2017-01-14T15:19:21.091Z,52
2017-01-14T15:20:30.072Z,56
2017-01-14T15:21:39.055Z,52
2017-01-14T15:22:48.031Z,44
2017-01-14T15:23:57.019Z,40
2017-01-14T15:25:06.006Z,36
2017-01-14T15:26:14.989Z,32
2017-01-14T15:27:23.968Z,28
2017-01-14T15:28:32.951Z,24
2017-01-14T15:29:41.932Z,20
2017-01-14T15:30:50.910Z,20
2017-01-14T15:31:59.892Z,16
2017-01-14T15:33:08.875Z,16
2017-01-14T15:34:17.853Z,12
2017-01-14T15:35:26.845Z,12
2017-01-14T15:36:35.827Z,12
2017-01-14T15:37:44.809Z,12
2017-01-14T15:38:53.799Z,8
2017-01-14T15:40:02.773Z,8
2017-01-14T15:41:11.758Z,4
2017-01-14T15:42:20.739Z,4
2017-01-14T15:43:29.728Z,4
2017-01-14T15:44:38.709Z,4
2017-01-14T15:45:47.689Z,4
2017-01-14T15:46:56.672Z,0
2017-01-14T15:48:05.662Z,0
2017-01-14T15:49:14.644Z,4
2017-01-14T15:50:23.634Z,4
2017-01-14T15:51:32.610Z,0
2017-01-14T15:52:41.595Z,0
2017-01-14T15:53:50.581Z,0
2017-01-14T15:54:59.564Z,0
2017-01-14T15:56:08.544Z,0
2017-01-14T15:57:17.524Z,0
2017-01-14T15:58:26.515Z,0
2017-01-14T15:59:35.497Z,0
2017-01-14T16:00:44.486Z,0
2017-01-14T16:01:53.468Z,0
2017-01-14T16:03:02.449Z,0
2017-01-14T16:04:11.432Z,0
2017-01-14T16:05:20.411Z,0
2017-01-14T16:06:29.389Z,0
2017-01-14T16:07:38.397Z,0
2017-01-14T16:08:47.381Z,0
2017-01-14T16:09:56.361Z,0
2017-01-14T16:11:05.338Z,0
2017-01-14T16:12:14.345Z,0
2017-01-14T16:13:23.327Z,0
2017-01-14T16:14:32.319Z,0
2017-01-14T16:15:41.308Z,0
2017-01-14T16:16:50.287Z,0
2017-01-14T16:17:59.269Z,0
2017-01-14T16:19:08.257Z,0
2017-01-14T16:20:17.242Z,0
2017-01-14T16:21:26.226Z,0